LFCK 210400Z AUTO 29008KT 9999 OVC007 02/00 Q1029

ElémentsDécodage
LFCK Station météo située sur l'aérodrome de CASTRES Mazamet
210400Z émis le 21 du mois à 04h00 UTC
AUTO Bulletin édité par un automate
29008KT vent du 290°, 08 noeuds
9999 visibilité horizontale supérieure à 10 Km
OVC007 couverture nuageuse totale (8/8) à 700 pieds
02/00 température 02°C, point de rosée 00°C
 soit une humidité relative de 87%
Q1029 la pression au niveau de la mer (QNH) est de 1029 hPa